sensor_id;sensor_type;location;lat;lon;timestamp;pressure;altitude;pressure_sealevel;temperature;humidity
55418;BME280;41287;47.554;7.844;2023-07-20T00:01:14;97932.59;;;22.91;53.97
55418;BME280;41287;47.554;7.844;2023-07-20T00:03:39;97931.81;;;22.91;53.81
55418;BME280;41287;47.554;7.844;2023-07-20T00:06:05;97934.53;;;22.91;54.11
55418;BME280;41287;47.554;7.844;2023-07-20T00:08:30;97927.50;;;22.90;53.98
55418;BME280;41287;47.554;7.844;2023-07-20T00:10:56;97930.59;;;22.88;53.86
55418;BME280;41287;47.554;7.844;2023-07-20T00:13:21;97936.03;;;22.88;53.41
55418;BME280;41287;47.554;7.844;2023-07-20T00:15:47;97937.19;;;22.87;53.98
55418;BME280;41287;47.554;7.844;2023-07-20T00:18:12;97936.41;;;22.87;53.59
55418;BME280;41287;47.554;7.844;2023-07-20T00:20:38;97932.88;;;22.86;53.80
55418;BME280;41287;47.554;7.844;2023-07-20T00:23:06;97930.53;;;22.84;53.42
55418;BME280;41287;47.554;7.844;2023-07-20T00:25:32;97929.75;;;22.84;53.53
55418;BME280;41287;47.554;7.844;2023-07-20T00:27:58;97933.63;;;22.83;53.54
55418;BME280;41287;47.554;7.844;2023-07-20T00:30:23;97943.75;;;22.82;53.42
55418;BME280;41287;47.554;7.844;2023-07-20T00:32:49;97938.31;;;22.82;53.05
55418;BME280;41287;47.554;7.844;2023-07-20T00:35:16;97940.25;;;22.82;53.38
55418;BME280;41287;47.554;7.844;2023-07-20T00:37:41;97935.94;;;22.81;53.43
55418;BME280;41287;47.554;7.844;2023-07-20T00:40:07;97932.78;;;22.79;53.45
55418;BME280;41287;47.554;7.844;2023-07-20T00:42:33;97934.72;;;22.78;53.18
55418;BME280;41287;47.554;7.844;2023-07-20T00:44:59;97938.63;;;22.77;53.65
55418;BME280;41287;47.554;7.844;2023-07-20T00:47:25;97935.44;;;22.75;53.60
55418;BME280;41287;47.554;7.844;2023-07-20T00:49:51;97932.34;;;22.77;53.57
55418;BME280;41287;47.554;7.844;2023-07-20T00:52:19;97933.50;;;22.76;53.65
55418;BME280;41287;47.554;7.844;2023-07-20T00:54:45;97936.59;;;22.74;53.81
55418;BME280;41287;47.554;7.844;2023-07-20T00:57:14;97936.59;;;22.74;53.65
55418;BME280;41287;47.554;7.844;2023-07-20T00:59:40;97933.06;;;22.74;53.40
55418;BME280;41287;47.554;7.844;2023-07-20T01:02:05;97933.41;;;22.72;53.67
55418;BME280;41287;47.554;7.844;2023-07-20T01:04:31;97933.88;;;22.74;53.53
55418;BME280;41287;47.554;7.844;2023-07-20T01:09:34;97931.84;;;22.71;53.95
55418;BME280;41287;47.554;7.844;2023-07-20T01:12:08;97931.06;;;22.71;53.56
55418;BME280;41287;47.554;7.844;2023-07-20T01:14:36;97925.59;;;22.71;53.51
55418;BME280;41287;47.554;7.844;2023-07-20T01:17:02;97922.06;;;22.70;53.40
55418;BME280;41287;47.554;7.844;2023-07-20T01:19:28;97928.69;;;22.69;53.64
55418;BME280;41287;47.554;7.844;2023-07-20T01:24:30;97927.09;;;22.68;53.35
55418;BME280;41287;47.554;7.844;2023-07-20T01:32:46;97936.81;;;22.66;53.46
55418;BME280;41287;47.554;7.844;2023-07-20T01:35:15;97928.19;;;22.64;53.34
55418;BME280;41287;47.554;7.844;2023-07-20T01:37:46;97943.00;;;22.63;53.80
55418;BME280;41287;47.554;7.844;2023-07-20T01:40:13;97939.47;;;22.62;53.35
55418;BME280;41287;47.554;7.844;2023-07-20T01:42:43;97932.44;;;22.61;53.58
55418;BME280;41287;47.554;7.844;2023-07-20T01:45:09;97931.66;;;22.61;53.49
55418;BME280;41287;47.554;7.844;2023-07-20T01:47:34;97929.28;;;22.59;53.80
55418;BME280;41287;47.554;7.844;2023-07-20T01:50:00;97932.00;;;22.59;53.69
55418;BME280;41287;47.554;7.844;2023-07-20T01:52:25;97923.81;;;22.59;53.69
55418;BME280;41287;47.554;7.844;2023-07-20T01:54:51;97926.53;;;22.59;53.44
55418;BME280;41287;47.554;7.844;2023-07-20T01:57:16;97922.25;;;22.58;53.59
55418;BME280;41287;47.554;7.844;2023-07-20T01:59:41;97923.41;;;22.57;53.71
55418;BME280;41287;47.554;7.844;2023-07-20T02:02:08;97914.06;;;22.58;53.87
55418;BME280;41287;47.554;7.844;2023-07-20T02:04:34;97921.03;;;22.56;53.33
55418;BME280;41287;47.554;7.844;2023-07-20T02:06:59;97919.09;;;22.56;54.00
55418;BME280;41287;47.554;7.844;2023-07-20T02:09:25;97920.25;;;22.55;53.71
55418;BME280;41287;47.554;7.844;2023-07-20T02:11:51;97924.91;;;22.55;53.89
55418;BME280;41287;47.554;7.844;2023-07-20T02:14:16;97918.66;;;22.54;54.02
55418;BME280;41287;47.554;7.844;2023-07-20T02:16:41;97925.25;;;22.53;53.71
55418;BME280;41287;47.554;7.844;2023-07-20T02:19:07;97924.47;;;22.53;53.57
55418;BME280;41287;47.554;7.844;2023-07-20T02:21:32;97920.94;;;22.52;53.63
55418;BME280;41287;47.554;7.844;2023-07-20T02:23:59;97928.00;;;22.53;53.80
55418;BME280;41287;47.554;7.844;2023-07-20T02:26:26;97924.88;;;22.51;53.81
55418;BME280;41287;47.554;7.844;2023-07-20T02:28:52;97922.13;;;22.51;54.07
55418;BME280;41287;47.554;7.844;2023-07-20T02:31:17;97929.88;;;22.49;53.70
55418;BME280;41287;47.554;7.844;2023-07-20T02:33:43;97924.44;;;22.49;53.64
55418;BME280;41287;47.554;7.844;2023-07-20T02:36:08;97922.84;;;22.48;53.99
55418;BME280;41287;47.554;7.844;2023-07-20T02:38:33;97925.56;;;22.48;53.72
55418;BME280;41287;47.554;7.844;2023-07-20T02:40:59;97930.25;;;22.48;53.71
55418;BME280;41287;47.554;7.844;2023-07-20T02:43:24;97929.44;;;22.47;53.79
55418;BME280;41287;47.554;7.844;2023-07-20T02:45:52;97933.31;;;22.46;53.61
55418;BME280;41287;47.554;7.844;2023-07-20T02:48:18;97925.13;;;22.46;53.72
55418;BME280;41287;47.554;7.844;2023-07-20T02:50:44;97932.53;;;22.45;53.44
55418;BME280;41287;47.554;7.844;2023-07-20T02:53:09;97934.47;;;22.45;53.81
55418;BME280;41287;47.554;7.844;2023-07-20T02:55:34;97941.13;;;22.44;53.44
55418;BME280;41287;47.554;7.844;2023-07-20T02:58:01;97937.94;;;22.42;53.96
55418;BME280;41287;47.554;7.844;2023-07-20T03:00:28;97935.22;;;22.42;53.79
55418;BME280;41287;47.554;7.844;2023-07-20T03:02:53;97935.22;;;22.42;54.02
55418;BME280;41287;47.554;7.844;2023-07-20T03:05:21;97933.63;;;22.41;53.72
55418;BME280;41287;47.554;7.844;2023-07-20T03:07:48;97931.25;;;22.39;53.70
55418;BME280;41287;47.554;7.844;2023-07-20T03:10:13;97930.91;;;22.41;54.10
55418;BME280;41287;47.554;7.844;2023-07-20T03:12:43;97932.41;;;22.38;53.87
55418;BME280;41287;47.554;7.844;2023-07-20T03:15:11;97930.09;;;22.40;54.34
55418;BME280;41287;47.554;7.844;2023-07-20T03:17:36;97927.72;;;22.39;54.00
55418;BME280;41287;47.554;7.844;2023-07-20T03:20:02;97936.31;;;22.37;54.19
55418;BME280;41287;47.554;7.844;2023-07-20T03:22:28;97935.53;;;22.37;54.38
55418;BME280;41287;47.554;7.844;2023-07-20T03:24:53;97928.47;;;22.36;54.32
55418;BME280;41287;47.554;7.844;2023-07-20T03:27:18;97933.94;;;22.36;54.17
55418;BME280;41287;47.554;7.844;2023-07-20T03:29:44;97935.88;;;22.35;53.88
55418;BME280;41287;47.554;7.844;2023-07-20T03:32:10;97940.91;;;22.33;54.04
55418;BME280;41287;47.554;7.844;2023-07-20T03:34:36;97939.75;;;22.34;54.19
55418;BME280;41287;47.554;7.844;2023-07-20T03:37:01;97941.69;;;22.34;54.30
55418;BME280;41287;47.554;7.844;2023-07-20T03:39:29;97942.03;;;22.32;54.24
55418;BME280;41287;47.554;7.844;2023-07-20T03:41:55;97943.97;;;22.32;53.93
55418;BME280;41287;47.554;7.844;2023-07-20T03:44:20;97949.03;;;22.30;53.98
55418;BME280;41287;47.554;7.844;2023-07-20T03:46:45;97949.03;;;22.30;53.96
55418;BME280;41287;47.554;7.844;2023-07-20T03:49:10;97944.72;;;22.29;54.48
55418;BME280;41287;47.554;7.844;2023-07-20T03:51:38;97947.81;;;22.27;54.20
55418;BME280;41287;47.554;7.844;2023-07-20T03:54:06;97940.75;;;22.26;54.27
55418;BME280;41287;47.554;7.844;2023-07-20T03:56:31;97946.22;;;22.26;54.00
55418;BME280;41287;47.554;7.844;2023-07-20T03:59:00;97948.94;;;22.26;53.92
55418;BME280;41287;47.554;7.844;2023-07-20T04:01:25;97943.84;;;22.25;54.01
55418;BME280;41287;47.554;7.844;2023-07-20T04:03:51;97956.72;;;22.24;54.23
55418;BME280;41287;47.554;7.844;2023-07-20T04:06:16;97946.97;;;22.23;53.84
55418;BME280;41287;47.554;7.844;2023-07-20T04:08:42;97956.72;;;22.24;54.22
55418;BME280;41287;47.554;7.844;2023-07-20T04:11:08;97960.59;;;22.23;54.18
55418;BME280;41287;47.554;7.844;2023-07-20T04:13:33;97965.28;;;22.23;54.05
55418;BME280;41287;47.554;7.844;2023-07-20T04:16:03;97969.16;;;22.22;54.22
55418;BME280;41287;47.554;7.844;2023-07-20T04:18:28;97973.03;;;22.21;54.26
55418;BME280;41287;47.554;7.844;2023-07-20T04:20:53;97958.59;;;22.20;54.60
55418;BME280;41287;47.554;7.844;2023-07-20T04:23:19;97958.59;;;22.20;54.56
55418;BME280;41287;47.554;7.844;2023-07-20T04:25:44;97967.22;;;22.22;54.93
55418;BME280;41287;47.554;7.844;2023-07-20T04:28:11;97963.34;;;22.23;55.44
55418;BME280;41287;47.554;7.844;2023-07-20T04:30:40;97958.66;;;22.24;55.22
55418;BME280;41287;47.554;7.844;2023-07-20T04:33:05;97960.22;;;22.25;55.42
55418;BME280;41287;47.554;7.844;2023-07-20T04:38:16;97953.41;;;22.34;55.33
55418;BME280;41287;47.554;7.844;2023-07-20T04:40:44;97958.56;;;22.39;55.89
55418;BME280;41287;47.554;7.844;2023-07-20T04:43:09;97967.25;;;22.45;56.27
55418;BME280;41287;47.554;7.844;2023-07-20T04:45:35;97956.03;;;22.50;57.28
55418;BME280;41287;47.554;7.844;2023-07-20T04:48:00;97956.88;;;22.54;58.41
55418;BME280;41287;47.554;7.844;2023-07-20T04:50:25;97953.84;;;22.59;59.38
55418;BME280;41287;47.554;7.844;2023-07-20T04:52:51;97945.75;;;22.63;59.68
55418;BME280;41287;47.554;7.844;2023-07-20T04:55:17;97953.63;;;22.68;60.97
55418;BME280;41287;47.554;7.844;2023-07-20T04:57:43;97954.84;;;22.70;61.56
55418;BME280;41287;47.554;7.844;2023-07-20T05:00:10;97958.44;;;22.74;62.75
55418;BME280;41287;47.554;7.844;2023-07-20T05:02:39;97949.59;;;22.81;64.23
55418;BME280;41287;47.554;7.844;2023-07-20T05:05:04;97953.19;;;22.85;64.51
55418;BME280;41287;47.554;7.844;2023-07-20T05:07:31;97947.75;;;22.89;64.82
55418;BME280;41287;47.554;7.844;2023-07-20T05:09:56;97949.78;;;22.92;65.86
55418;BME280;41287;47.554;7.844;2023-07-20T05:12:24;97950.97;;;22.94;66.86
55418;BME280;41287;47.554;7.844;2023-07-20T05:14:49;97956.16;;;22.99;67.65
55418;BME280;41287;47.554;7.844;2023-07-20T05:17:15;97963.25;;;23.04;68.03
55418;BME280;41287;47.554;7.844;2023-07-20T05:19:40;97948.06;;;23.06;68.89
55418;BME280;41287;47.554;7.844;2023-07-20T05:22:05;97952.44;;;23.11;69.28
55418;BME280;41287;47.554;7.844;2023-07-20T05:24:31;97948.59;;;23.15;69.50
55418;BME280;41287;47.554;7.844;2023-07-20T05:26:58;97954.13;;;23.19;71.41
55418;BME280;41287;47.554;7.844;2023-07-20T05:29:23;97956.47;;;23.20;68.58
55418;BME280;41287;47.554;7.844;2023-07-20T05:31:48;97953.34;;;23.18;65.59
55418;BME280;41287;47.554;7.844;2023-07-20T05:34:14;97952.13;;;23.16;64.32
55418;BME280;41287;47.554;7.844;2023-07-20T05:36:39;97952.88;;;23.13;63.23
55418;BME280;41287;47.554;7.844;2023-07-20T05:39:05;97960.56;;;23.07;61.92
55418;BME280;41287;47.554;7.844;2023-07-20T05:41:30;97947.66;;;23.04;61.11
55418;BME280;41287;47.554;7.844;2023-07-20T05:43:55;97958.13;;;23.02;60.64
55418;BME280;41287;47.554;7.844;2023-07-20T05:46:21;97958.50;;;23.01;59.97
55418;BME280;41287;47.554;7.844;2023-07-20T05:48:48;97948.72;;;23.00;59.81
55418;BME280;41287;47.554;7.844;2023-07-20T05:51:15;97955.38;;;22.99;59.09
55418;BME280;41287;47.554;7.844;2023-07-20T05:53:41;97949.47;;;22.97;59.08
55418;BME280;41287;47.554;7.844;2023-07-20T05:56:06;97945.94;;;22.96;58.50
55418;BME280;41287;47.554;7.844;2023-07-20T05:58:35;97951.78;;;22.95;58.34
55418;BME280;41287;47.554;7.844;2023-07-20T06:01:00;97950.19;;;22.94;58.12
55418;BME280;41287;47.554;7.844;2023-07-20T06:03:27;97956.84;;;22.93;58.26
55418;BME280;41287;47.554;7.844;2023-07-20T06:05:58;97949.00;;;22.91;57.84
55418;BME280;41287;47.554;7.844;2023-07-20T06:08:24;97949.41;;;22.93;57.80
55418;BME280;41287;47.554;7.844;2023-07-20T06:10:50;97947.06;;;22.92;57.79
55418;BME280;41287;47.554;7.844;2023-07-20T06:13:17;97949.00;;;22.91;57.65
55418;BME280;41287;47.554;7.844;2023-07-20T06:15:42;97943.53;;;22.91;57.32
55418;BME280;41287;47.554;7.844;2023-07-20T06:18:08;97950.94;;;22.91;57.79
55418;BME280;41287;47.554;7.844;2023-07-20T06:20:36;97949.34;;;22.90;57.44
55418;BME280;41287;47.554;7.844;2023-07-20T06:23:01;97943.09;;;22.89;57.40
55418;BME280;41287;47.554;7.844;2023-07-20T06:25:27;97945.81;;;22.89;56.71
55418;BME280;41287;47.554;7.844;2023-07-20T06:27:55;97940.38;;;22.89;56.41
55418;BME280;41287;47.554;7.844;2023-07-20T06:30:20;97945.03;;;22.89;56.71
55418;BME280;41287;47.554;7.844;2023-07-20T06:32:46;97944.25;;;22.88;57.07
55418;BME280;41287;47.554;7.844;2023-07-20T06:35:13;97947.75;;;22.89;56.84
55418;BME280;41287;47.554;7.844;2023-07-20T06:37:43;97953.22;;;22.89;56.88
55418;BME280;41287;47.554;7.844;2023-07-20T06:40:08;97954.38;;;22.88;56.75
55418;BME280;41287;47.554;7.844;2023-07-20T06:42:35;97948.91;;;22.88;56.69
55418;BME280;41287;47.554;7.844;2023-07-20T06:45:00;97948.13;;;22.87;56.77
55418;BME280;41287;47.554;7.844;2023-07-20T06:47:26;97949.28;;;22.86;56.31
55418;BME280;41287;47.554;7.844;2023-07-20T06:49:51;97958.25;;;22.87;56.65
55418;BME280;41287;47.554;7.844;2023-07-20T06:52:19;97957.47;;;22.86;56.41
55418;BME280;41287;47.554;7.844;2023-07-20T06:54:44;97949.28;;;22.86;56.59
55418;BME280;41287;47.554;7.844;2023-07-20T06:57:10;97952.78;;;22.87;56.81
55418;BME280;41287;47.554;7.844;2023-07-20T06:59:35;97946.53;;;22.86;56.56
55418;BME280;41287;47.554;7.844;2023-07-20T07:02:00;97945.78;;;22.86;56.54
55418;BME280;41287;47.554;7.844;2023-07-20T07:04:26;97946.53;;;22.86;56.37
55418;BME280;41287;47.554;7.844;2023-07-20T07:06:52;97951.25;;;22.86;56.50
55418;BME280;41287;47.554;7.844;2023-07-20T07:09:17;97951.25;;;22.86;56.53
55418;BME280;41287;47.554;7.844;2023-07-20T07:11:43;97953.97;;;22.86;56.54
55418;BME280;41287;47.554;7.844;2023-07-20T07:14:08;97952.78;;;22.87;56.42
55418;BME280;41287;47.554;7.844;2023-07-20T07:16:35;97951.25;;;22.86;56.71
55418;BME280;41287;47.554;7.844;2023-07-20T07:19:02;97943.81;;;22.86;56.72
55418;BME280;41287;47.554;7.844;2023-07-20T07:21:28;97951.66;;;22.88;56.30
55418;BME280;41287;47.554;7.844;2023-07-20T07:23:54;97948.13;;;22.87;56.62
55418;BME280;41287;47.554;7.844;2023-07-20T07:26:22;97959.06;;;22.87;56.78
55418;BME280;41287;47.554;7.844;2023-07-20T07:28:48;97957.47;;;22.86;56.51
55418;BME280;41287;47.554;7.844;2023-07-20T07:31:13;97948.91;;;22.88;56.33
55418;BME280;41287;47.554;7.844;2023-07-20T07:33:39;97953.59;;;22.87;56.48
55418;BME280;41287;47.554;7.844;2023-07-20T07:36:05;97950.50;;;22.89;56.58
55418;BME280;41287;47.554;7.844;2023-07-20T07:38:31;97954.03;;;22.89;56.28
55418;BME280;41287;47.554;7.844;2023-07-20T07:40:58;97958.34;;;22.90;56.28
55418;BME280;41287;47.554;7.844;2023-07-20T07:43:23;97952.09;;;22.90;56.49
55418;BME280;41287;47.554;7.844;2023-07-20T07:45:53;97950.94;;;22.91;56.57
55418;BME280;41287;47.554;7.844;2023-07-20T07:48:22;97938.00;;;22.88;56.54
55418;BME280;41287;47.554;7.844;2023-07-20T07:50:47;97943.94;;;22.93;56.60
55418;BME280;41287;47.554;7.844;2023-07-20T07:53:13;97940.44;;;22.93;56.73
55418;BME280;41287;47.554;7.844;2023-07-20T07:55:38;97940.44;;;22.93;57.36
55418;BME280;41287;47.554;7.844;2023-07-20T07:58:03;97943.16;;;22.93;57.31
55418;BME280;41287;47.554;7.844;2023-07-20T08:00:29;97936.91;;;22.92;57.02
55418;BME280;41287;47.554;7.844;2023-07-20T08:02:54;97938.47;;;22.93;56.76
55418;BME280;41287;47.554;7.844;2023-07-20T08:05:19;97938.84;;;22.92;56.74
55418;BME280;41287;47.554;7.844;2023-07-20T08:07:45;97945.09;;;22.92;57.28
55418;BME280;41287;47.554;7.844;2023-07-20T08:10:11;97946.66;;;22.93;56.83
55418;BME280;41287;47.554;7.844;2023-07-20T08:12:38;97950.19;;;22.94;55.59
55418;BME280;41287;47.554;7.844;2023-07-20T08:15:04;97942.78;;;22.94;55.37
55418;BME280;41287;47.554;7.844;2023-07-20T08:17:29;97946.31;;;22.95;55.32
55418;BME280;41287;47.554;7.844;2023-07-20T08:19:56;97931.50;;;22.96;55.02
55418;BME280;41287;47.554;7.844;2023-07-20T08:22:22;97929.56;;;22.96;55.64
55418;BME280;41287;47.554;7.844;2023-07-20T08:24:47;97930.78;;;22.99;55.66
55418;BME280;41287;47.554;7.844;2023-07-20T08:27:13;97935.06;;;23.00;55.46
55418;BME280;41287;47.554;7.844;2023-07-20T08:29:38;97932.72;;;22.98;55.72
55418;BME280;41287;47.554;7.844;2023-07-20T08:32:04;97938.59;;;23.00;55.54
55418;BME280;41287;47.554;7.844;2023-07-20T08:34:30;97935.84;;;23.00;55.43
55418;BME280;41287;47.554;7.844;2023-07-20T08:36:56;97934.28;;;22.99;55.55
55418;BME280;41287;47.554;7.844;2023-07-20T08:39:24;97931.91;;;22.98;55.05
55418;BME280;41287;47.554;7.844;2023-07-20T08:41:50;97928.84;;;22.99;54.86
55418;BME280;41287;47.554;7.844;2023-07-20T08:44:17;97929.59;;;23.00;56.27
55418;BME280;41287;47.554;7.844;2023-07-20T08:46:42;97935.06;;;23.00;56.25
55418;BME280;41287;47.554;7.844;2023-07-20T08:49:09;97929.59;;;23.00;56.55
55418;BME280;41287;47.554;7.844;2023-07-20T08:51:36;97926.84;;;23.00;55.82
55418;BME280;41287;47.554;7.844;2023-07-20T08:54:02;97926.84;;;23.00;55.59
55418;BME280;41287;47.554;7.844;2023-07-20T08:56:29;97924.91;;;23.00;56.55
55418;BME280;41287;47.554;7.844;2023-07-20T08:58:56;97925.72;;;23.01;55.92
55418;BME280;41287;47.554;7.844;2023-07-20T09:01:22;97921.41;;;23.00;55.09
55418;BME280;41287;47.554;7.844;2023-07-20T09:03:47;97906.56;;;23.01;55.42
55418;BME280;41287;47.554;7.844;2023-07-20T09:06:14;97913.63;;;23.02;56.21
55418;BME280;41287;47.554;7.844;2023-07-20T09:08:44;97910.91;;;23.02;56.37
55418;BME280;41287;47.554;7.844;2023-07-20T09:11:11;97913.63;;;23.02;56.02
55418;BME280;41287;47.554;7.844;2023-07-20T09:13:37;97908.94;;;23.02;56.08
55418;BME280;41287;47.554;7.844;2023-07-20T09:16:03;97913.63;;;23.02;56.23
55418;BME280;41287;47.554;7.844;2023-07-20T09:18:31;97905.06;;;23.03;56.32
55418;BME280;41287;47.554;7.844;2023-07-20T09:21:04;97911.69;;;23.02;56.29
55418;BME280;41287;47.554;7.844;2023-07-20T09:23:30;97909.69;;;22.99;56.75
55418;BME280;41287;47.554;7.844;2023-07-20T09:25:57;97905.84;;;23.04;55.84
55418;BME280;41287;47.554;7.844;2023-07-20T09:28:23;97896.88;;;23.03;55.39
55418;BME280;41287;47.554;7.844;2023-07-20T09:30:48;97897.66;;;23.04;55.38
55418;BME280;41287;47.554;7.844;2023-07-20T09:33:24;97898.03;;;23.02;55.68
55418;BME280;41287;47.554;7.844;2023-07-20T09:35:49;97901.19;;;23.04;55.92
55418;BME280;41287;47.554;7.844;2023-07-20T09:38:15;97893.78;;;23.05;56.13
55418;BME280;41287;47.554;7.844;2023-07-20T09:40:41;97891.03;;;23.05;54.89
55418;BME280;41287;47.554;7.844;2023-07-20T09:43:08;97885.56;;;23.05;55.05
55418;BME280;41287;47.554;7.844;2023-07-20T09:45:40;97889.88;;;23.06;54.57
55418;BME280;41287;47.554;7.844;2023-07-20T09:48:09;97887.56;;;23.08;54.10
55418;BME280;41287;47.554;7.844;2023-07-20T09:50:49;97883.25;;;23.07;54.18
55418;BME280;41287;47.554;7.844;2023-07-20T09:53:17;97879.34;;;23.08;54.66
55418;BME280;41287;47.554;7.844;2023-07-20T09:55:44;97880.94;;;23.09;54.55
55418;BME280;41287;47.554;7.844;2023-07-20T09:58:10;97873.91;;;23.08;54.82
55418;BME280;41287;47.554;7.844;2023-07-20T10:00:37;97868.44;;;23.08;55.09
55418;BME280;41287;47.554;7.844;2023-07-20T10:03:04;97868.06;;;23.09;55.24
55418;BME280;41287;47.554;7.844;2023-07-20T10:05:33;97871.16;;;23.08;55.62
55418;BME280;41287;47.554;7.844;2023-07-20T10:10:27;97866.13;;;23.10;55.03
55418;BME280;41287;47.554;7.844;2023-07-20T10:12:52;97861.09;;;23.12;55.68
55418;BME280;41287;47.554;7.844;2023-07-20T10:15:20;97865.00;;;23.14;55.84
55418;BME280;41287;47.554;7.844;2023-07-20T10:18:02;97860.75;;;23.17;56.01
55418;BME280;41287;47.554;7.844;2023-07-20T10:20:29;97858.47;;;23.19;55.65
55418;BME280;41287;47.554;7.844;2023-07-20T10:22:56;97845.56;;;23.19;55.75
55418;BME280;41287;47.554;7.844;2023-07-20T10:25:22;97846.38;;;23.20;55.75
55418;BME280;41287;47.554;7.844;2023-07-20T10:27:48;97850.25;;;23.19;55.70
55418;BME280;41287;47.554;7.844;2023-07-20T10:30:16;97845.16;;;23.17;55.73
55418;BME280;41287;47.554;7.844;2023-07-20T10:32:43;97840.47;;;23.18;55.71
55418;BME280;41287;47.554;7.844;2023-07-20T10:35:15;97840.03;;;23.16;55.86
55418;BME280;41287;47.554;7.844;2023-07-20T10:37:47;97844.38;;;23.17;56.02
55418;BME280;41287;47.554;7.844;2023-07-20T10:40:37;97839.25;;;23.15;55.74
55418;BME280;41287;47.554;7.844;2023-07-20T10:43:08;97836.16;;;23.17;55.93
55418;BME280;41287;47.554;7.844;2023-07-20T10:45:41;97827.53;;;23.15;56.16
55418;BME280;41287;47.554;7.844;2023-07-20T10:48:15;97833.00;;;23.15;55.34
55418;BME280;41287;47.554;7.844;2023-07-20T10:50:41;97827.97;;;23.17;55.47
55418;BME280;41287;47.554;7.844;2023-07-20T10:53:14;97826.38;;;23.16;55.60
55418;BME280;41287;47.554;7.844;2023-07-20T10:55:40;97826.38;;;23.16;55.65
55418;BME280;41287;47.554;7.844;2023-07-20T10:58:09;97834.59;;;23.16;55.66
55418;BME280;41287;47.554;7.844;2023-07-20T11:00:35;97833.44;;;23.17;55.72
55418;BME280;41287;47.554;7.844;2023-07-20T11:03:03;97826.38;;;23.16;55.67
55418;BME280;41287;47.554;7.844;2023-07-20T11:05:37;97822.84;;;23.15;55.06
55418;BME280;41287;47.554;7.844;2023-07-20T11:08:04;97817.38;;;23.15;55.12
55418;BME280;41287;47.554;7.844;2023-07-20T11:10:32;97811.56;;;23.17;54.67
55418;BME280;41287;47.554;7.844;2023-07-20T11:13:23;97809.19;;;23.15;54.93
55418;BME280;41287;47.554;7.844;2023-07-20T11:16:02;97799.03;;;23.16;53.71
55418;BME280;41287;47.554;7.844;2023-07-20T11:18:33;97798.69;;;23.17;53.24
55418;BME280;41287;47.554;7.844;2023-07-20T11:20:59;97801.41;;;23.17;52.78
55418;BME280;41287;47.554;7.844;2023-07-20T11:23:24;97795.94;;;23.17;52.34
55418;BME280;41287;47.554;7.844;2023-07-20T11:25:51;97802.22;;;23.18;54.03
55418;BME280;41287;47.554;7.844;2023-07-20T11:28:16;97795.16;;;23.17;54.10
55418;BME280;41287;47.554;7.844;2023-07-20T11:30:41;97789.69;;;23.17;54.06
55418;BME280;41287;47.554;7.844;2023-07-20T11:33:09;97788.91;;;23.16;54.04
55418;BME280;41287;47.554;7.844;2023-07-20T11:35:42;97781.50;;;23.17;53.60
55418;BME280;41287;47.554;7.844;2023-07-20T11:38:09;97778.75;;;23.17;52.81
55418;BME280;41287;47.554;7.844;2023-07-20T11:40:42;97776.03;;;23.17;53.43
55418;BME280;41287;47.554;7.844;2023-07-20T11:43:08;97780.34;;;23.18;52.88
55418;BME280;41287;47.554;7.844;2023-07-20T11:45:34;97776.03;;;23.17;53.07
55418;BME280;41287;47.554;7.844;2023-07-20T11:47:59;97776.03;;;23.17;52.22
55418;BME280;41287;47.554;7.844;2023-07-20T11:50:25;97776.03;;;23.17;52.52
55418;BME280;41287;47.554;7.844;2023-07-20T11:52:51;97773.28;;;23.17;52.25
55418;BME280;41287;47.554;7.844;2023-07-20T11:55:16;97771.00;;;23.19;53.06
55418;BME280;41287;47.554;7.844;2023-07-20T11:58:00;97765.09;;;23.17;53.31
55418;BME280;41287;47.554;7.844;2023-07-20T12:00:26;97763.16;;;23.17;54.56
55418;BME280;41287;47.554;7.844;2023-07-20T12:02:53;97756.91;;;23.17;54.54
55418;BME280;41287;47.554;7.844;2023-07-20T12:05:18;97761.56;;;23.16;53.92
55418;BME280;41287;47.554;7.844;2023-07-20T12:07:44;97755.75;;;23.18;53.37
55418;BME280;41287;47.554;7.844;2023-07-20T12:10:11;97749.47;;;23.17;53.38
55418;BME280;41287;47.554;7.844;2023-07-20T12:12:44;97752.66;;;23.19;52.32
55418;BME280;41287;47.554;7.844;2023-07-20T12:15:25;97750.69;;;23.20;52.44
55418;BME280;41287;47.554;7.844;2023-07-20T12:18:02;97749.13;;;23.19;52.25
55418;BME280;41287;47.554;7.844;2023-07-20T12:20:36;97748.31;;;23.18;52.42
55418;BME280;41287;47.554;7.844;2023-07-20T12:23:12;97739.34;;;23.18;52.27
55418;BME280;41287;47.554;7.844;2023-07-20T12:25:44;97734.66;;;23.18;52.61
55418;BME280;41287;47.554;7.844;2023-07-20T12:28:10;97733.50;;;23.19;52.51
55418;BME280;41287;47.554;7.844;2023-07-20T12:30:37;97739.75;;;23.20;52.65
55418;BME280;41287;47.554;7.844;2023-07-20T12:33:03;97737.41;;;23.18;52.61
55418;BME280;41287;47.554;7.844;2023-07-20T12:35:29;97735.06;;;23.20;52.91
55418;BME280;41287;47.554;7.844;2023-07-20T12:37:55;97729.97;;;23.19;53.65
55418;BME280;41287;47.554;7.844;2023-07-20T12:40:20;97732.31;;;23.20;54.09
55418;BME280;41287;47.554;7.844;2023-07-20T12:42:46;97726.09;;;23.20;53.89
55418;BME280;41287;47.554;7.844;2023-07-20T12:45:11;97719.44;;;23.21;53.62
55418;BME280;41287;47.554;7.844;2023-07-20T12:47:36;97727.66;;;23.21;53.54
55418;BME280;41287;47.554;7.844;2023-07-20T12:50:02;97724.91;;;23.21;53.76
55418;BME280;41287;47.554;7.844;2023-07-20T12:52:31;97720.22;;;23.21;53.86
55418;BME280;41287;47.554;7.844;2023-07-20T12:54:56;97712.03;;;23.21;53.49
55418;BME280;41287;47.554;7.844;2023-07-20T12:57:22;97702.25;;;23.20;54.06
55418;BME280;41287;47.554;7.844;2023-07-20T12:59:47;97710.47;;;23.20;53.69
55418;BME280;41287;47.554;7.844;2023-07-20T13:02:13;97700.31;;;23.21;54.38
55418;BME280;41287;47.554;7.844;2023-07-20T13:04:38;97696.78;;;23.20;54.21
55418;BME280;41287;47.554;7.844;2023-07-20T13:07:03;97689.38;;;23.21;54.63
55418;BME280;41287;47.554;7.844;2023-07-20T13:09:29;97690.16;;;23.21;54.66
55418;BME280;41287;47.554;7.844;2023-07-20T13:11:54;97692.13;;;23.21;54.63
55418;BME280;41287;47.554;7.844;2023-07-20T13:14:20;97690.94;;;23.22;54.73